Time;durP1;ratioP1;P1;durP2;ratioP2;P2;SDS_P1;SDS_P2;PMS_P1;PMS_P2;Temp;Humidity;BMP_temperature;BMP_pressure;BME280_temperature;BME280_humidity;BME280_pressure;Samples;Min_cycle;Max_cycle;Signal;HPM_P1;HPM_P2
2023/05/21 00:00:35;;;;;;;;;18.50;17.50;;;;;-147.17;100.00;-10710.16;4987261;28;53179;-62
2023/05/21 00:03:00;;;;;;;;;16.00;16.00;;;;;-147.17;100.00;-10958.19;4986516;28;53704;-62
2023/05/21 00:05:25;;;;;;;;;18.00;17.25;;;;;-147.17;100.00;-11206.22;4987047;28;51492;-62
2023/05/21 00:07:53;;;;;;;;;18.00;16.50;;;;;-147.17;100.00;-11454.25;4986878;28;51190;-62
2023/05/21 00:10:19;;;;;;;;;15.25;15.25;;;;;-147.17;100.00;-11454.25;4987059;28;51212;-62
2023/05/21 00:12:44;;;;;;;;;17.00;16.50;;;;;-147.17;100.00;-11950.22;4969069;28;51951;-62
2023/05/21 00:15:10;;;;;;;;;20.00;18.00;;;;;-147.17;100.00;-12198.19;4986741;28;51441;-62
2023/05/21 00:17:36;;;;;;;;;16.50;16.50;;;;;-147.17;100.00;-12694.06;4969404;28;53195;-62
2023/05/21 00:20:05;;;;;;;;;17.75;17.25;;;;;-147.17;100.00;-12694.06;4984390;28;51227;-62
2023/05/21 00:22:32;;;;;;;;;16.25;16.25;;;;;-147.17;100.00;-13437.75;4986825;28;51921;-62
2023/05/21 00:24:58;;;;;;;;;16.00;16.00;;;;;-147.17;100.00;-13189.88;4986655;28;51184;-62
2023/05/21 00:27:23;;;;;;;;;15.50;14.50;;;;;-147.17;100.00;-13437.75;4986930;28;51157;-62
2023/05/21 00:29:48;;;;;;;;;18.75;18.00;;;;;-147.17;100.00;-13933.50;4986922;28;51217;-62
2023/05/21 00:32:13;;;;;;;;;22.75;21.25;;;;;-147.17;100.00;-13933.50;4986896;28;53607;-62
2023/05/21 00:34:39;;;;;;;;;22.00;21.75;;;;;-147.17;100.00;-14181.31;4985450;28;51330;-62
2023/05/21 00:37:04;;;;;;;;;16.75;16.75;;;;;-147.17;100.00;-14429.16;4986626;28;51283;-62
2023/05/21 00:39:30;;;;;;;;;19.75;19.00;;;;;-147.17;100.00;-14181.31;4986894;28;51487;-62
2023/05/21 00:41:55;;;;;;;;;13.75;13.75;;;;;-147.17;100.00;-14429.16;4986564;28;51980;-61
2023/05/21 00:44:22;;;;;;;;;20.00;20.00;;;;;-147.17;100.00;-14676.94;4985034;28;51231;-63
2023/05/21 00:46:52;;;;;;;;;21.00;21.00;;;;;-147.17;100.00;-14676.94;4968497;28;51215;-61
2023/05/21 00:49:21;;;;;;;;;18.75;18.75;;;;;-147.17;100.00;-14924.75;4986397;28;53738;-61
2023/05/21 00:51:47;;;;;;;;;21.00;20.00;;;;;-147.17;100.00;-15420.25;4985968;28;51738;-61
2023/05/21 00:54:12;;;;;;;;;19.50;18.75;;;;;-147.17;100.00;-15420.25;4986195;28;51420;-61
2023/05/21 00:56:38;;;;;;;;;24.00;21.00;;;;;-147.17;100.00;-15420.25;4986677;28;51162;-62
2023/05/21 00:59:04;;;;;;;;;20.00;19.75;;;;;-147.17;100.00;-15420.25;4986571;28;51082;-62
2023/05/21 01:01:32;;;;;;;;;19.25;18.50;;;;;-147.17;100.00;-15668.00;4985874;28;51504;-62
2023/05/21 01:04:00;;;;;;;;;22.00;22.00;;;;;-147.17;100.00;-15420.25;4986109;28;51275;-62
2023/05/21 01:06:26;;;;;;;;;20.00;19.25;;;;;-147.17;100.00;-15668.00;4985985;28;53572;-62
2023/05/21 01:08:52;;;;;;;;;20.25;19.25;;;;;-147.17;100.00;-15668.00;4986410;28;51213;-62
2023/05/21 01:11:17;;;;;;;;;23.00;22.75;;;;;-147.17;100.00;-15915.72;4986039;28;51914;-62
2023/05/21 01:13:45;;;;;;;;;24.00;23.00;;;;;-147.17;100.00;-15915.72;4968479;28;51476;-62
2023/05/21 01:16:12;;;;;;;;;22.50;21.75;;;;;-147.17;100.00;-15915.72;4968662;28;51245;-62
2023/05/21 01:18:38;;;;;;;;;19.00;19.00;;;;;-147.17;100.00;-15915.72;4986030;28;51194;-61
2023/05/21 01:21:04;;;;;;;;;22.50;21.00;;;;;-147.17;100.00;-15917.19;4985874;28;51732;-61
2023/05/21 01:23:29;;;;;;;;;19.75;19.75;;;;;-147.17;100.00;-15917.19;4985808;28;51441;-62
2023/05/21 01:25:55;;;;;;;;;22.00;20.75;;;;;-147.17;100.00;-15917.19;4968260;28;51113;-62
2023/05/21 01:28:20;;;;;;;;;21.50;20.25;;;;;-147.17;100.00;-15917.19;4986244;28;53549;-62
2023/05/21 01:30:46;;;;;;;;;21.75;21.25;;;;;-147.17;100.00;-15917.19;4985550;28;51770;-62
2023/05/21 01:33:19;;;;;;;;;19.50;19.00;;;;;-147.17;100.00;-15917.19;4985701;28;51204;-63
2023/05/21 01:35:59;;;;;;;;;22.50;21.75;;;;;-147.17;100.00;-15917.19;4985624;28;51179;-62
2023/05/21 01:38:32;;;;;;;;;23.75;23.00;;;;;-147.17;100.00;-15917.19;4986009;28;51265;-61
2023/05/21 01:41:02;;;;;;;;;21.75;21.25;;;;;-147.17;100.00;-15917.19;4985480;28;52276;-62
2023/05/21 01:43:30;;;;;;;;;21.50;21.00;;;;;-147.17;100.00;-15917.19;4985444;28;51291;-62
2023/05/21 01:45:58;;;;;;;;;21.50;20.75;;;;;-147.17;100.00;-15917.19;4985487;28;51415;-62
2023/05/21 01:48:27;;;;;;;;;24.25;22.50;;;;;-147.17;100.00;-15917.19;4967776;28;51410;-62
2023/05/21 01:50:54;;;;;;;;;23.00;22.00;;;;;-147.17;100.00;-15917.19;4985000;28;52544;-62
2023/05/21 01:53:20;;;;;;;;;23.25;22.25;;;;;-147.17;100.00;-15917.19;4984481;28;51161;-62
2023/05/21 01:55:47;;;;;;;;;23.00;22.50;;;;;-147.17;100.00;-15917.19;4986302;28;51266;-62
2023/05/21 01:58:12;;;;;;;;;21.00;20.50;;;;;-147.17;100.00;-15917.19;4989117;28;51322;-62
2023/05/21 02:00:38;;;;;;;;;20.75;20.25;;;;;-147.17;100.00;-15917.19;4988685;28;51812;-62
2023/05/21 02:03:04;;;;;;;;;25.50;24.00;;;;;-147.17;100.00;-15917.19;4988998;28;51179;-61
2023/05/21 02:05:30;;;;;;;;;23.00;22.25;;;;;-147.17;100.00;-15917.19;4988734;28;53231;-62
2023/05/21 02:07:55;;;;;;;;;23.25;21.50;;;;;-147.17;100.00;-15917.19;4989028;28;51371;-62
2023/05/21 02:10:21;;;;;;;;;23.25;22.75;;;;;-147.17;100.00;-15917.19;4988796;28;51157;-62
2023/05/21 02:12:47;;;;;;;;;23.75;22.75;;;;;-147.17;100.00;-15917.19;4971407;28;51281;-62
2023/05/21 02:15:16;;;;;;;;;24.75;22.25;;;;;-147.17;100.00;-15917.19;4971439;28;51408;-62
2023/05/21 02:17:43;;;;;;;;;23.00;22.00;;;;;-147.17;100.00;-15917.19;4989245;28;51204;-62
2023/05/21 02:20:11;;;;;;;;;21.75;21.50;;;;;-147.17;100.00;-15917.19;4986695;28;52945;-62
2023/05/21 02:22:42;;;;;;;;;26.50;23.75;;;;;-147.17;100.00;-15917.19;4971074;28;53539;-62
2023/05/21 02:25:09;;;;;;;;;22.50;22.25;;;;;-147.17;100.00;-15917.19;4988642;28;51199;-62
2023/05/21 02:27:36;;;;;;;;;27.25;25.25;;;;;-147.17;100.00;-15917.19;4971227;28;53323;-62
2023/05/21 02:30:14;;;;;;;;;22.50;21.25;;;;;-147.17;100.00;-15917.19;4988213;28;53565;-62
2023/05/21 02:32:42;;;;;;;;;26.25;26.00;;;;;-147.17;100.00;-15917.19;4988690;28;51163;-62
2023/05/21 02:35:09;;;;;;;;;23.25;23.25;;;;;-147.17;100.00;-15917.19;4988668;28;51230;-62
2023/05/21 02:37:35;;;;;;;;;25.25;24.25;;;;;-147.17;100.00;-15917.19;4987784;28;51210;-62
2023/05/21 02:40:02;;;;;;;;;26.00;25.25;;;;;-147.17;100.00;-15917.19;4988446;28;52085;-62
2023/05/21 02:42:28;;;;;;;;;21.75;21.25;;;;;-147.17;100.00;-15917.19;4985752;28;51332;-62
2023/05/21 02:44:53;;;;;;;;;28.75;26.75;;;;;-147.17;100.00;-15917.19;4988595;28;51270;-62
2023/05/21 02:47:19;;;;;;;;;26.50;24.00;;;;;-147.17;100.00;-15917.19;4988046;28;56131;-61
2023/05/21 02:49:45;;;;;;;;;23.75;23.50;;;;;-147.17;100.00;-15917.19;4988048;28;53233;-62
2023/05/21 02:52:11;;;;;;;;;31.00;25.75;;;;;-147.17;100.00;-15917.19;4988525;28;51090;-62
2023/05/21 02:54:36;;;;;;;;;23.25;22.50;;;;;-147.17;100.00;-15917.19;4988131;28;51172;-61
2023/05/21 02:57:01;;;;;;;;;27.25;26.00;;;;;-147.17;100.00;-15917.19;4988531;28;51151;-61
2023/05/21 02:59:27;;;;;;;;;24.50;24.00;;;;;-147.17;100.00;-15917.19;4988110;28;51935;-61
2023/05/21 03:01:52;;;;;;;;;23.50;23.00;;;;;-147.17;100.00;-15917.19;4988121;28;51154;-62
2023/05/21 03:04:20;;;;;;;;;23.25;22.75;;;;;-147.17;100.00;-15917.19;4987577;28;53164;-62
2023/05/21 03:06:46;;;;;;;;;27.50;26.25;;;;;-147.17;100.00;-15917.19;4987476;28;51284;-62
2023/05/21 03:09:12;;;;;;;;;28.00;27.75;;;;;-147.17;100.00;-15917.19;4986803;28;51527;-62
2023/05/21 03:11:37;;;;;;;;;29.50;28.75;;;;;-147.17;100.00;-15917.19;4970651;28;51282;-62
2023/05/21 03:14:02;;;;;;;;;25.25;25.00;;;;;-147.17;100.00;-15917.19;4988286;28;51117;-62
2023/05/21 03:16:28;;;;;;;;;27.00;26.25;;;;;-147.17;100.00;-15917.19;4970781;28;51516;-62
2023/05/21 03:18:53;;;;;;;;;26.50;26.50;;;;;-147.17;100.00;-15917.19;4987683;28;52039;-61
2023/05/21 03:21:21;;;;;;;;;28.25;27.00;;;;;-147.17;100.00;-15917.19;4987150;28;51181;-62
2023/05/21 03:23:47;;;;;;;;;28.25;27.75;;;;;-147.17;100.00;-15917.19;4988421;28;51344;-62
2023/05/21 03:26:13;;;;;;;;;32.50;30.25;;;;;-147.17;100.00;-15917.19;4987799;28;51376;-62
2023/05/21 03:28:38;;;;;;;;;29.00;26.50;;;;;-147.17;100.00;-15917.19;4987204;28;52686;-61
2023/05/21 03:31:03;;;;;;;;;28.75;27.50;;;;;-147.17;100.00;-15917.19;4987480;28;51212;-62
2023/05/21 03:33:29;;;;;;;;;28.50;28.00;;;;;-147.17;100.00;-15917.19;4987844;28;51239;-62
2023/05/21 03:35:54;;;;;;;;;29.25;28.75;;;;;-147.17;100.00;-15917.19;4987605;28;51324;-62
2023/05/21 03:38:20;;;;;;;;;31.00;30.00;;;;;-147.17;100.00;-15917.19;4987543;28;53488;-62
2023/05/21 03:40:45;;;;;;;;;28.25;26.75;;;;;-147.17;100.00;-15917.19;4970075;28;51413;-61
2023/05/21 03:43:10;;;;;;;;;23.00;22.75;;;;;-147.17;100.00;-15917.19;4987749;28;51145;-60
2023/05/21 03:45:36;;;;;;;;;30.75;28.50;;;;;-147.17;100.00;-15917.19;4987597;28;51512;-62
2023/05/21 03:48:01;;;;;;;;;27.75;27.00;;;;;-147.17;100.00;-15917.19;4986923;28;53324;-62
2023/05/21 03:50:26;;;;;;;;;30.75;28.25;;;;;-147.17;100.00;-15917.19;4969796;28;51236;-60
2023/05/21 03:52:52;;;;;;;;;26.75;26.25;;;;;-147.17;100.00;-15917.19;4987494;28;51317;-62
2023/05/21 03:55:17;;;;;;;;;24.50;24.00;;;;;-147.17;100.00;-15917.19;4988002;28;51444;-61
2023/05/21 03:57:42;;;;;;;;;31.25;28.25;;;;;-147.17;100.00;-15917.19;4987081;28;52200;-61
2023/05/21 04:00:08;;;;;;;;;28.50;28.00;;;;;-147.17;100.00;-15917.19;4987026;28;51231;-61
2023/05/21 04:02:34;;;;;;;;;31.00;29.75;;;;;-147.17;100.00;-15917.19;4987067;28;51249;-62
2023/05/21 04:04:59;;;;;;;;;33.00;30.25;;;;;-147.17;100.00;-15917.19;4969756;28;51110;-62
2023/05/21 04:07:25;;;;;;;;;29.25;28.75;;;;;-147.17;100.00;-15917.19;4969470;28;52400;-63
2023/05/21 04:09:51;;;;;;;;;31.50;28.75;;;;;-147.17;100.00;-15917.19;4986914;28;51392;-62
2023/05/21 04:12:18;;;;;;;;;29.50;28.00;;;;;-147.17;100.00;-15917.19;4987455;28;51319;-62
2023/05/21 04:14:45;;;;;;;;;28.50;28.00;;;;;-147.17;100.00;-15917.19;4987382;28;51128;-62
2023/05/21 04:17:11;;;;;;;;;31.00;29.50;;;;;-147.17;100.00;-15917.19;4986452;28;53150;-62
2023/05/21 04:19:36;;;;;;;;;30.50;28.75;;;;;-147.17;100.00;-15917.19;4986978;28;51254;-63
2023/05/21 04:22:02;;;;;;;;;27.75;27.25;;;;;-147.17;100.00;-15917.19;4985073;28;51442;-62
2023/05/21 04:24:27;;;;;;;;;27.00;26.25;;;;;-147.17;100.00;-15917.19;4969580;28;51356;-62
2023/05/21 04:26:53;;;;;;;;;30.00;27.75;;;;;-147.17;100.00;-15917.19;4986461;28;60378;-62
2023/05/21 04:29:20;;;;;;;;;32.50;28.75;;;;;-147.17;100.00;-15917.19;4986926;28;51191;-62
2023/05/21 04:31:46;;;;;;;;;31.00;31.00;;;;;-147.17;100.00;-15917.19;4986751;28;51334;-62
2023/05/21 04:34:12;;;;;;;;;32.50;30.00;;;;;-147.17;100.00;-15917.19;4987121;28;51328;-62
2023/05/21 04:36:37;;;;;;;;;33.00;30.25;;;;;-147.17;100.00;-15917.19;4986394;28;51394;-62
2023/05/21 04:39:05;;;;;;;;;32.00;30.25;;;;;-147.17;100.00;-15917.19;4986796;28;51163;-62
2023/05/21 04:41:30;;;;;;;;;28.00;28.00;;;;;-147.17;100.00;-15917.19;4986651;28;51187;-63
2023/05/21 04:43:55;;;;;;;;;38.00;33.25;;;;;-147.17;100.00;-15917.19;4986949;28;53673;-62
2023/05/21 04:46:24;;;;;;;;;33.50;31.00;;;;;-147.17;100.00;-15917.19;4986581;28;53445;-62
2023/05/21 04:48:52;;;;;;;;;30.25;30.00;;;;;-147.17;100.00;-15917.19;4986444;28;51209;-62
2023/05/21 04:51:18;;;;;;;;;35.00;32.50;;;;;-147.17;100.00;-15917.19;4968744;28;54283;-62
2023/05/21 04:53:43;;;;;;;;;33.00;31.00;;;;;-147.17;100.00;-15917.19;4986491;28;51356;-62
2023/05/21 04:56:08;;;;;;;;;33.50;31.75;;;;;-147.17;100.00;-15917.19;4986294;28;52006;-62
2023/05/21 04:58:34;;;;;;;;;33.00;30.50;;;;;-147.17;100.00;-15917.19;4986403;28;53570;-62
2023/05/21 05:01:01;;;;;;;;;30.00;29.25;;;;;-147.17;100.00;-15917.19;4984753;28;51761;-62
2023/05/21 05:03:27;;;;;;;;;34.25;32.00;;;;;-147.17;100.00;-15917.19;4985794;28;53600;-62
2023/05/21 05:05:52;;;;;;;;;32.00;30.75;;;;;-147.17;100.00;-15917.19;4985856;28;51230;-60
2023/05/21 05:08:18;;;;;;;;;32.50;31.00;;;;;-147.17;100.00;-15917.19;4968309;28;51218;-61
2023/05/21 05:10:43;;;;;;;;;35.25;32.75;;;;;-147.17;100.00;-15917.19;4985977;28;51243;-62
2023/05/21 05:13:08;;;;;;;;;33.50;31.50;;;;;-147.17;100.00;-15917.19;4986241;28;51394;-62
2023/05/21 05:15:33;;;;;;;;;31.75;30.25;;;;;-147.17;100.00;-15917.19;4985437;28;53160;-62
2023/05/21 05:17:59;;;;;;;;;32.00;31.00;;;;;-147.17;100.00;-15917.19;4985735;28;57757;-62
2023/05/21 05:20:24;;;;;;;;;33.25;29.75;;;;;-147.17;100.00;-15917.19;4986228;28;53272;-62
2023/05/21 05:22:50;;;;;;;;;34.00;32.50;;;;;-147.17;100.00;-15917.19;4986272;28;51511;-62
2023/05/21 05:25:15;;;;;;;;;30.25;30.25;;;;;-147.17;100.00;-15917.19;4985988;28;53010;-62
2023/05/21 05:27:40;;;;;;;;;34.00;31.25;;;;;-147.17;100.00;-15917.19;4985881;28;51268;-61
2023/05/21 05:30:06;;;;;;;;;29.75;29.50;;;;;-147.17;100.00;-15917.19;4984499;28;53379;-62
2023/05/21 05:32:31;;;;;;;;;34.00;31.50;;;;;-147.17;100.00;-15917.19;4985980;28;51057;-61
2023/05/21 05:34:57;;;;;;;;;31.00;30.00;;;;;-147.17;100.00;-15917.19;4985637;28;56210;-61
2023/05/21 05:37:22;;;;;;;;;31.25;30.25;;;;;-147.17;100.00;-15917.19;4985453;28;60636;-61
2023/05/21 05:39:47;;;;;;;;;30.75;30.25;;;;;-147.17;100.00;-15917.19;4986107;28;51188;-62
2023/05/21 05:42:13;;;;;;;;;32.50;30.00;;;;;-147.17;100.00;-15917.19;4986134;28;51498;-61
2023/05/21 05:44:38;;;;;;;;;29.50;27.25;;;;;-147.17;100.00;-15917.19;4984943;28;67743;-62
2023/05/21 05:47:07;;;;;;;;;37.00;31.00;;;;;-147.17;100.00;-15917.19;4985958;28;51253;-62
2023/05/21 05:49:33;;;;;;;;;33.50;30.50;;;;;-147.17;100.00;-15917.19;4985537;28;53190;-62
2023/05/21 05:51:59;;;;;;;;;34.00;31.75;;;;;-147.17;100.00;-15917.19;4968030;28;51238;-62
2023/05/21 05:54:25;;;;;;;;;32.25;30.00;;;;;-147.17;100.00;-15917.19;4941901;28;53040;-62
2023/05/21 05:56:50;;;;;;;;;33.25;31.25;;;;;-147.17;100.00;-15917.19;4985948;28;51211;-62
2023/05/21 05:59:15;;;;;;;;;31.00;30.00;;;;;-147.17;100.00;-15917.19;4985463;28;51311;-61
2023/05/21 06:01:41;;;;;;;;;31.75;30.25;;;;;-147.17;100.00;-15915.72;4982912;28;53117;-62
2023/05/21 06:04:06;;;;;;;;;31.75;30.25;;;;;-147.17;100.00;-15420.25;4984003;28;51520;-62
2023/05/21 06:06:33;;;;;;;;;28.50;27.50;;;;;-147.17;100.00;-14676.94;4985179;28;57090;-62
2023/05/21 06:08:59;;;;;;;;;29.75;28.75;;;;;-147.17;100.00;-13933.50;4985229;28;51153;-62
2023/05/21 06:11:25;;;;;;;;;30.75;29.50;;;;;-147.17;100.00;-12941.97;4968015;28;51526;-62
2023/05/21 06:13:50;;;;;;;;;31.75;31.25;;;;;-147.17;100.00;-12198.19;4985193;28;51701;-63
2023/05/21 06:16:16;;;;;;;;;30.25;28.25;;;;;-147.17;100.00;-12446.13;4967850;28;51188;-62
2023/05/21 06:18:41;;;;;;;;;31.75;31.25;;;;;-147.17;100.00;-12694.06;4985396;28;51276;-62
2023/05/21 06:21:07;;;;;;;;;32.25;30.75;;;;;-147.17;100.00;-12198.19;4985498;28;51307;-62
2023/05/21 06:23:34;;;;;;;;;29.75;29.50;;;;;-147.17;100.00;-10710.16;4985170;28;51176;-63
2023/05/21 06:25:59;;;;;;;;;30.25;27.75;;;;;-147.17;100.00;-9717.81;4985373;28;53139;-61
2023/05/21 06:28:25;;;;;;;;;31.00;29.25;;;;;-147.17;100.00;-8725.22;4985073;28;51650;-62
2023/05/21 06:30:50;;;;;;;;;30.25;29.00;;;;;-147.17;100.00;-7235.84;4984137;28;51142;-61
2023/05/21 06:33:15;;;;;;;;;34.25;32.50;;;;;-147.17;100.00;-6987.56;4985134;28;51445;-62
2023/05/21 06:35:41;;;;;;;;;33.25;31.50;;;;;-147.17;100.00;-6242.59;4985304;28;51240;-63
2023/05/21 06:38:06;;;;;;;;;31.25;30.50;;;;;-147.17;100.00;-5994.25;4985357;28;51775;-62
2023/05/21 06:40:33;;;;;;;;;27.75;26.75;;;;;-147.17;100.00;-4503.81;4985288;28;51482;-61
2023/05/21 06:42:58;;;;;;;;;31.75;30.00;;;;;-147.17;100.00;-3261.34;4985670;28;52072;-63
2023/05/21 06:45:24;;;;;;;;;27.00;26.25;;;;;-147.17;100.00;-2515.66;4988828;28;51190;-63
2023/05/21 06:47:49;;;;;;;;;26.50;25.00;;;;;-147.17;100.00;-1272.53;4988459;28;51070;-62
2023/05/21 06:50:15;;;;;;;;;28.00;27.00;;;;;-147.17;100.00;966.09;4988841;28;53667;-62
2023/05/21 06:52:40;;;;;;;;;29.25;27.25;;;;;-147.17;100.00;1961.44;4988030;28;52541;-61
2023/05/21 06:55:07;;;;;;;;;25.00;24.50;;;;;-147.17;100.00;3206.00;4988315;28;51293;-61
2023/05/21 06:57:33;;;;;;;;;26.75;26.75;;;;;-147.17;100.00;3952.94;4988504;28;53487;-62
2023/05/21 06:59:58;;;;;;;;;25.00;25.00;;;;;-147.17;100.00;4700.00;4988451;28;51148;-61
2023/05/21 07:02:24;;;;;;;;;26.25;25.75;;;;;-147.17;100.00;8437.53;4987773;28;53106;-62
2023/05/21 07:04:50;;;;;;;;;25.75;24.75;;;;;-147.17;100.00;9434.84;4988245;28;51301;-63
2023/05/21 07:07:16;;;;;;;;;26.75;26.00;;;;;-147.17;100.00;9185.47;4988336;28;51401;-62
2023/05/21 07:09:41;;;;;;;;;26.50;26.50;;;;;-147.17;100.00;9933.56;4987639;28;52022;-62
2023/05/21 07:12:06;;;;;;;;;27.25;24.25;;;;;-147.17;100.00;11430.19;4987769;28;53256;-62
2023/05/21 07:14:32;;;;;;;;;25.00;25.00;;;;;-147.17;100.00;13426.53;4970659;28;51180;-62
2023/05/21 07:16:57;;;;;;;;;25.50;24.75;;;;;-147.17;100.00;19171.84;4987974;28;51402;-62
2023/05/21 07:19:22;;;;;;;;;26.75;26.25;;;;;-147.17;100.00;17172.50;4987061;28;52703;-62
2023/05/21 07:21:48;;;;;;;;;25.50;25.00;;;;;-147.17;100.00;16922.66;4987952;28;52676;-63
2023/05/21 07:24:13;;;;;;;;;27.00;26.00;;;;;-147.17;100.00;19921.84;4987875;28;51158;-63
2023/05/21 07:26:39;;;;;;;;;22.50;20.75;;;;;-147.17;100.00;21422.31;4987885;28;51519;-62
2023/05/21 07:29:04;;;;;;;;;27.75;26.00;;;;;-147.17;100.00;21922.59;4987698;28;51103;-63
2023/05/21 07:31:29;;;;;;;;;29.00;28.25;;;;;-147.17;100.00;28017.09;4987272;28;51283;-62
2023/05/21 07:33:55;;;;;;;;;27.25;27.25;;;;;-147.17;100.00;28091.50;4987951;28;51286;-63
2023/05/21 07:36:20;;;;;;;;;26.00;26.00;;;;;-147.17;100.00;28733.59;4987707;28;51198;-64
2023/05/21 07:38:45;;;;;;;;;25.75;25.75;;;;;-147.17;100.00;30057.25;4987833;28;51129;-63
2023/05/21 07:41:11;;;;;;;;;26.75;26.50;;;;;-147.17;100.00;32619.72;4986990;28;51577;-60
2023/05/21 07:43:37;;;;;;;;;31.50;29.75;;;;;-147.17;100.00;31483.25;4987878;28;51283;-61
2023/05/21 07:46:02;;;;;;;;;26.00;24.50;;;;;-147.17;100.00;30337.31;4987739;28;51144;-63
2023/05/21 07:48:27;;;;;;;;;25.25;24.75;;;;;-147.17;100.00;32801.97;4987713;28;53518;-62
2023/05/21 07:50:53;;;;;;;;;26.25;26.00;;;;;-147.17;100.00;33572.25;4987148;28;52817;-62
2023/05/21 07:53:19;;;;;;;;;23.00;22.00;;;;;-147.17;100.00;35638.81;4987191;28;51208;-62
2023/05/21 07:55:48;;;;;;;;;24.25;23.25;;;;;-147.17;100.00;35501.53;4987800;28;51177;-63
2023/05/21 07:58:16;;;;;;;;;24.25;23.25;;;;;-147.17;100.00;35297.59;4987865;28;51517;-62
2023/05/21 08:00:44;;;;;;;;;22.25;21.75;;;;;-147.17;100.00;35644.72;4986882;28;53571;-62
2023/05/21 08:03:10;;;;;;;;;22.25;20.50;;;;;-147.17;100.00;36033.03;4987187;28;51324;-62
2023/05/21 08:05:36;;;;;;;;;21.25;20.00;;;;;-147.17;100.00;35764.34;4987100;28;53086;-62
2023/05/21 08:08:03;;;;;;;;;23.00;23.00;;;;;-147.17;100.00;37353.31;4987375;28;51413;-62
2023/05/21 08:10:29;;;;;;;;;19.50;19.50;;;;;-147.17;100.00;37259.13;4986811;28;51708;-62
2023/05/21 08:12:54;;;;;;;;;23.50;22.00;;;;;-147.17;100.00;38216.72;4984809;28;51073;-62
2023/05/21 08:15:20;;;;;;;;;21.75;20.75;;;;;-147.17;100.00;38723.06;4987249;28;51249;-62
2023/05/21 08:17:45;;;;;;;;;23.00;21.50;;;;;-147.17;100.00;39005.72;4986987;28;51192;-62
2023/05/21 08:20:13;;;;;;;;;20.50;19.00;;;;;-147.17;100.00;39364.94;4986764;28;57076;-62
2023/05/21 08:22:38;;;;;;;;;22.33;20.67;;;;;-147.17;100.00;38428.66;4986639;28;51226;-62
2023/05/21 08:25:04;;;;;;;;;18.67;18.67;;;;;-147.17;100.00;38149.97;4987018;28;51238;-62
2023/05/21 08:27:29;;;;;;;;;19.33;19.00;;;;;-147.17;100.00;40016.72;4987064;28;51128;-62
2023/05/21 08:29:55;;;;;;;;;19.67;18.00;;;;;-147.17;100.00;40014.78;4986576;28;53546;-62
2023/05/21 08:32:20;;;;;;;;;19.33;18.67;;;;;-147.17;100.00;39663.34;4986728;28;51341;-62
2023/05/21 08:34:46;;;;;;;;;18.33;18.33;;;;;-147.17;100.00;40097.25;4986449;28;51177;-62
2023/05/21 08:37:11;;;;;;;;;19.00;19.00;;;;;-147.17;100.00;39745.78;4986743;28;51363;-62
2023/05/21 08:39:36;;;;;;;;;19.00;17.33;;;;;-147.17;100.00;40362.31;4968397;28;63290;-63
2023/05/21 08:42:28;;;;;;;;;17.67;15.33;;;;;-147.17;100.00;39525.91;4986443;28;52474;-63
2023/05/21 08:44:59;;;;;;;;;16.33;16.33;;;;;-147.17;100.00;39840.03;4986645;28;51346;-62
2023/05/21 08:47:28;;;;;;;;;17.33;17.00;;;;;-147.17;100.00;39790.94;4986131;28;51143;-62
2023/05/21 08:49:55;;;;;;;;;17.00;17.00;;;;;-147.17;100.00;39853.78;4985712;28;52414;-63
2023/05/21 08:52:20;;;;;;;;;15.67;15.67;;;;;-147.17;100.00;39480.75;4986268;28;53176;-62
2023/05/21 08:54:49;;;;;;;;;17.00;16.33;;;;;-147.17;100.00;39372.78;4986051;28;51193;-62
2023/05/21 08:57:17;;;;;;;;;16.67;15.67;;;;;-147.17;100.00;39041.03;4986253;28;51459;-62
2023/05/21 08:59:43;;;;;;;;;12.33;12.00;;;;;-147.17;100.00;39474.88;4985754;28;51915;-62
2023/05/21 09:02:12;;;;;;;;;15.33;15.33;;;;;-147.17;100.00;39296.22;4984699;28;51281;-62
2023/05/21 09:04:41;;;;;;;;;15.00;14.00;;;;;-147.17;100.00;39684.94;4985439;28;51081;-62
2023/05/21 09:07:09;;;;;;;;;14.33;13.33;;;;;-147.17;100.00;39551.44;4984979;28;51268;-62
2023/05/21 09:09:43;;;;;;;;;11.33;11.33;;;;;-147.17;100.00;39188.25;4967265;28;53945;-63
2023/05/21 09:12:08;;;;;;;;;12.33;12.33;;;;;-147.17;100.00;38554.28;4985260;28;51209;-63
2023/05/21 09:14:36;;;;;;;;;15.33;14.33;;;;;-147.17;100.00;38960.56;4985664;28;53847;-63
2023/05/21 09:17:01;;;;;;;;;14.67;14.33;;;;;-147.17;100.00;39009.63;4968149;28;51241;-62
2023/05/21 09:19:28;;;;;;;;;13.67;13.67;;;;;-147.17;100.00;39170.59;4984232;28;51740;-62
2023/05/21 09:22:01;;;;;;;;;14.67;14.67;;;;;-147.17;100.00;39255.00;4985039;28;51599;-62
2023/05/21 09:24:29;;;;;;;;;14.67;14.67;;;;;-147.17;100.00;38984.13;4986217;28;51284;-62
2023/05/21 09:26:57;;;;;;;;;17.00;16.00;;;;;-147.17;100.00;38793.72;4985803;28;51522;-62
2023/05/21 09:29:24;;;;;;;;;18.00;17.00;;;;;-147.17;100.00;39123.50;4956207;28;51984;-62
2023/05/21 09:31:50;;;;;;;;;19.67;18.33;;;;;-147.17;100.00;39465.06;4985487;28;51200;-62
2023/05/21 09:34:15;;;;;;;;;16.00;16.00;;;;;-147.17;100.00;39425.78;4985618;28;53532;-62
2023/05/21 09:36:42;;;;;;;;;16.00;15.33;;;;;-147.17;100.00;39734.00;4984918;28;51393;-62
2023/05/21 09:39:10;;;;;;;;;16.00;15.00;;;;;-147.17;100.00;39930.34;4985338;28;53386;-62
2023/05/21 09:41:35;;;;;;;;;15.67;15.00;;;;;-147.17;100.00;39559.28;4985213;28;51280;-61
2023/05/21 09:44:01;;;;;;;;;17.25;17.25;;;;;-147.17;100.00;38956.63;4985614;28;51353;-61
2023/05/21 09:46:37;;;;;;;;;16.33;15.67;;;;;-147.17;100.00;39096.00;4985656;28;51274;-61
2023/05/21 09:49:02;;;;;;;;;15.50;15.25;;;;;-147.17;100.00;38458.09;4966707;28;51241;-61
2023/05/21 09:51:28;;;;;;;;;16.00;14.67;;;;;-147.17;100.00;37651.53;4985233;28;51197;-61
2023/05/21 09:53:56;;;;;;;;;17.67;17.67;;;;;-147.17;100.00;37773.22;4985364;28;51214;-61
2023/05/21 09:56:28;;;;;;;;;18.00;18.00;;;;;-147.17;100.00;36851.03;4985908;28;51335;-61
2023/05/21 09:58:55;;;;;;;;;17.33;17.33;;;;;-147.17;100.00;36246.84;4984823;28;51893;-64
2023/05/21 10:01:22;;;;;;;;;18.33;17.00;;;;;-147.17;100.00;36337.06;4984231;28;51157;-62
2023/05/21 10:03:59;;;;;;;;;20.00;19.25;;;;;-147.17;100.00;36682.31;4984581;28;51311;-63
2023/05/21 10:06:27;;;;;;;;;18.00;18.00;;;;;-147.17;100.00;36819.66;4985639;28;53557;-63
2023/05/21 10:08:59;;;;;;;;;20.00;19.00;;;;;-147.17;100.00;37414.13;4967370;28;51686;-62
2023/05/21 10:11:26;;;;;;;;;20.67;19.00;;;;;-147.17;100.00;37808.53;4984426;28;51252;-63
2023/05/21 10:14:04;;;;;;;;;17.00;16.00;;;;;-147.17;100.00;38522.88;4982797;28;51216;-64
2023/05/21 10:16:32;;;;;;;;;17.00;17.00;;;;;-147.17;100.00;39198.09;4985483;28;51343;-65
2023/05/21 10:18:58;;;;;;;;;18.00;18.00;;;;;-147.17;100.00;40046.19;4987656;28;51153;-62
2023/05/21 10:21:25;;;;;;;;;19.00;18.67;;;;;-147.17;100.00;40973.03;4988143;28;51056;-63
2023/05/21 10:23:50;;;;;;;;;19.25;18.00;;;;;-147.17;100.00;42159.38;4987884;28;51318;-63
2023/05/21 10:26:18;;;;;;;;;17.00;17.00;;;;;-147.17;100.00;42884.34;4988886;28;51158;-63
2023/05/21 10:28:44;;;;;;;;;17.00;17.00;;;;;-147.17;100.00;43544.59;4988138;28;51810;-63
2023/05/21 10:31:11;;;;;;;;;16.00;16.00;;;;;-147.17;100.00;44057.53;4987925;28;51209;-63
2023/05/21 10:33:37;;;;;;;;;15.00;15.00;;;;;-147.17;100.00;44087.00;4987611;28;51208;-63
2023/05/21 10:36:03;;;;;;;;;18.33;18.00;;;;;-147.17;100.00;44122.38;4988811;28;51252;-63
2023/05/21 10:38:30;;;;;;;;;16.50;16.50;;;;;-147.17;100.00;44191.19;4970182;28;52430;-62
2023/05/21 10:40:57;;;;;;;;;17.50;16.75;;;;;-147.17;100.00;44533.19;4988336;28;51650;-62
2023/05/21 10:43:25;;;;;;;;;15.67;15.33;;;;;-147.17;100.00;44822.16;4987811;28;51318;-62
2023/05/21 10:46:05;;;;;;;;;18.50;18.50;;;;;-147.17;100.00;45215.34;4970163;28;51440;-61